Promitheas — SYIJ — position and weather

sailwx.info

Track history (hours):
 
Tides and Currents Weather Stations Pressure Air Temp Water Temp Dewpoint Dewpoint Depression Visibility Wind Speed Wind Dir Waves Ship Positions

Promitheas

Last reported at 2016-Aug-27 02:33 UTC. Time now 2016-Aug-27 02:52 UTC.
Position N 53°28' E 003°43'.

Length 249 m; draft 8.5 m.

Type: Tanker. MMSI: 240547000.

Date/timePositionNaut miles runAvg speedWind from/ knotsBaromVisibWave heightAir tempDewpointWater temp
2016-Aug-27 02:33N 53°28' E 003°43'1212.3
2016-Aug-27 01:33N 53°16' E 003°35'1312.6
2016-Aug-27 00:34N 53°05' E 003°26'1312.9
2016-Aug-26 23:34N 52°53' E 003°18'1313.3
2016-Aug-26 22:33N 52°41' E 003°08'1413.8
2016-Aug-26 21:33N 52°29' E 002°57'1514.9
2016-Aug-26 20:33N 52°19' E 003°14'1514.8
2016-Aug-26 19:33N 52°09' E 003°32'1413.9
2016-Aug-26 18:33N 52°02' E 003°52'9 9.0
2016-Aug-26 17:33N 51°59' E 004°06'9 9.1
2016-Aug-26 16:33N 51°54' E 004°18'1 0.6
2016-Aug-26 15:32N 51°53' E 004°17'0 0.0
2016-Aug-26 14:32N 51°53' E 004°17'0 0.0
2016-Aug-26 13:32N 51°53' E 004°17'0 0.0
2016-Aug-26 12:26N 51°53' E 004°17'0 0.0
2016-Aug-26 10:32N 51°53' E 004°17'0 0.0
2016-Aug-26 09:32N 51°53' E 004°17'0 0.0
2016-Aug-26 08:32N 51°53' E 004°17'0 0.0
2016-Aug-26 07:32N 51°53' E 004°17'0 0.0
2016-Aug-26 06:20N 51°53' E 004°17'0 0.0
2016-Aug-26 04:32N 51°53' E 004°17'0 0.0
2016-Aug-26 03:32N 51°53' E 004°17'0 0.0
2016-Aug-26 02:33N 51°53' E 004°17'0 0.0
2016-Aug-26 01:33N 51°53' E 004°17'0 0.0
2016-Aug-26 00:33N 51°53' E 004°17'0 0.0
2016-Aug-25 23:33N 51°53' E 004°17'0 0.0
2016-Aug-25 22:33N 51°53' E 004°17'0 0.0
2016-Aug-25 21:33N 51°53' E 004°17'0 0.0
2016-Aug-25 20:33N 51°53' E 004°17'0 0.0
2016-Aug-25 19:33N 51°53' E 004°17'0 0.0
2016-Aug-25 18:33N 51°53' E 004°17'0 0.0
2016-Aug-25 17:33N 51°53' E 004°17'0 0.0
2016-Aug-25 16:33N 51°53' E 004°17'0 0.0
2016-Aug-25 15:33N 51°53' E 004°17'0 0.0
2016-Aug-25 14:33N 51°53' E 004°17'0 0.0
2016-Aug-25 13:33N 51°53' E 004°17'0 0.0
2016-Aug-25 12:33N 51°53' E 004°17'0 0.0
2016-Aug-25 11:33N 51°53' E 004°17'0 0.0
2016-Aug-25 10:33N 51°53' E 004°17'0 0.0
2016-Aug-25 09:33N 51°53' E 004°17'0 0.0
2016-Aug-25 08:33N 51°53' E 004°17'0 0.0
2016-Aug-25 07:33N 51°53' E 004°17'0 0.0
2016-Aug-25 06:33N 51°53' E 004°17'0 0.0
2016-Aug-25 04:33N 51°53' E 004°17'0 0.0
2016-Aug-25 03:33N 51°53' E 004°17'0 0.0
2016-Aug-25 02:33N 51°53' E 004°17'0 0.0
2016-Aug-25 01:33N 51°53' E 004°17'0 0.0
2016-Aug-25 00:33N 51°53' E 004°17'0 0.0
2016-Aug-24 23:33N 51°53' E 004°17'0 0.0
2016-Aug-24 22:33N 51°53' E 004°17'0 0.0
2016-Aug-24 21:33N 51°53' E 004°17'0 0.0
2016-Aug-24 20:33N 51°53' E 004°17'0 0.0
2016-Aug-24 19:33N 51°53' E 004°17'0 0.0
2016-Aug-24 18:33N 51°53' E 004°17'0 0.0
2016-Aug-24 17:33N 51°53' E 004°17'0 0.0
2016-Aug-24 16:33N 51°53' E 004°17'0 0.0
2016-Aug-24 15:33N 51°53' E 004°17'0 0.0
2016-Aug-24 14:33N 51°53' E 004°17'0 0.0
2016-Aug-24 13:33N 51°53' E 004°17'0 0.0
2016-Aug-24 12:33N 51°53' E 004°17'0 0.0
2016-Aug-24 11:33N 51°53' E 004°17'0 0.0
2016-Aug-24 10:33N 51°53' E 004°17'0 0.0
2016-Aug-24 09:33N 51°53' E 004°17'0 0.0
2016-Aug-24 08:33N 51°53' E 004°17'0 0.0
2016-Aug-24 07:33N 51°53' E 004°17'0 0.0
2016-Aug-24 06:33N 51°53' E 004°17'2 0.8
2016-Aug-24 04:33N 51°54' E 004°16'7 7.3
2016-Aug-24 03:33N 51°59' E 004°06'7 7.5
2016-Aug-24 02:33N 51°60' E 003°54'6 5.7
2016-Aug-24 01:33N 51°60' E 003°45'7 7.5
2016-Aug-24 00:33N 51°57' E 003°34'6 6.3
2016-Aug-23 23:33N 51°56' E 003°24'6 5.9
2016-Aug-23 22:33N 51°54' E 003°14'10 9.8
2016-Aug-23 21:33N 51°53' E 002°59'1110.9
2016-Aug-23 20:33N 51°55' E 002°41'1110.5
2016-Aug-23 19:30N 52°06' E 002°38'3510.5
2016-Aug-23 16:12N 52°38' E 003°00'711.4
2016-Aug-23 15:33N 52°44' E 003°06'1312.7
2016-Aug-23 14:33N 52°55' E 003°16'1313.1
2016-Aug-23 13:32N 53°08' E 003°22'1413.2
2016-Aug-23 12:28N 53°22' E 003°29'1212.9
2016-Aug-23 11:32N 53°33' E 003°36'4611.5
2016-Aug-23 07:32N 54°07' E 004°29'1813.5
2016-Aug-23 06:12N 54°23' E 004°44'2413.8
2016-Aug-23 04:27N 54°44' E 005°04'1213.6
2016-Aug-23 03:33N 54°54' E 005°14'1413.5
2016-Aug-23 02:33N 55°07' E 005°24'1413.5
2016-Aug-23 01:33N 55°19' E 005°33'17212.3
2016-Aug-22 11:33N 57°37' E 008°40'1212.1
2016-Aug-22 10:32N 57°43' E 009°00'5512.4
2016-Aug-22 06:07N 57°51' E 010°41'5 9.6
2016-Aug-22 05:33N 57°47' E 010°49'1212.5
2016-Aug-22 04:33N 57°38' E 011°06'1414.0
2016-Aug-22 03:33N 57°28' E 011°25'1414.0
2016-Aug-22 02:33N 57°16' E 011°35'1413.9
2016-Aug-22 01:34N 57°03' E 011°43'1413.6
2016-Aug-22 00:33N 56°50' E 011°53'1212.6
2016-Aug-21 23:33N 56°37' E 011°48'1413.8
2016-Aug-21 22:33N 56°26' E 011°33'6512.4
2016-Aug-21 17:21N 55°24' E 011°00'1113.7
2016-Aug-21 16:32N 55°14' E 011°06'1212.7
2016-Aug-21 15:34N 55°02' E 010°60'1313.3
2016-Aug-21 14:34N 54°50' E 010°50'1111.3
2016-Aug-21 13:33N 54°39' E 010°53'1313.2
2016-Aug-21 12:34N 54°35' E 011°15'1414.1
2016-Aug-21 11:33N 54°29' E 011°37'1413.5
2016-Aug-21 10:33N 54°27' E 012°00'1111.0
2016-Aug-21 09:33N 54°33' E 012°15'9 9.4
2016-Aug-21 08:33N 54°40' E 012°27'1311.8
2016-Aug-21 07:27N 54°47' E 012°46'1612.0
2016-Aug-21 06:05N 54°53' E 013°12'2113.5
2016-Aug-21 04:33N 55°00' E 013°46'1313.2
2016-Aug-21 03:33N 55°07' E 014°06'1313.4
2016-Aug-21 02:33N 55°17' E 014°22'1313.3
2016-Aug-21 01:33N 55°27' E 014°37'1413.6
2016-Aug-21 00:34N 55°33' E 014°58'1313.3
2016-Aug-20 23:33N 55°38' E 015°20'1313.5
2016-Aug-20 22:33N 55°41' E 015°43'4513.7
2016-Aug-20 19:14N 55°53' E 017°01'913.6
2016-Aug-20 18:33N 55°55' E 017°17'1313.4
2016-Aug-20 17:34N 55°59' E 017°40'1413.5
2016-Aug-20 16:33N 56°06' E 018°01'1413.5
2016-Aug-20 15:33N 56°13' E 018°22'4013.2
2016-Aug-20 12:33N 56°44' E 019°07'22113.0
2016-Aug-19 19:33N 59°38' E 023°25'1414.0
2016-Aug-19 18:33N 59°42' E 023°52'1413.7
2016-Aug-19 17:32N 59°46' E 024°19'1313.5
2016-Aug-19 16:33N 59°49' E 024°44'2813.8
2016-Aug-19 14:33N 59°54' E 025°38'1613.7
2016-Aug-19 13:22N 59°58' E 026°10'1113.7
2016-Aug-19 12:34N 60°01' E 026°31'1413.6
2016-Aug-19 11:33N 59°59' E 026°59'1313.3
2016-Aug-19 10:33N 60°05' E 027°22'1413.8
2016-Aug-19 09:33N 60°12' E 027°46'1413.4
2016-Aug-19 08:32N 60°23' E 028°03'  
Track history (hours):
 
Tides and Currents Weather Stations Pressure Air Temp Water Temp Dewpoint Dewpoint Depression Visibility Wind Speed Wind Dir Waves Ship Positions

Promitheas

Last reported at 2016-Aug-27 02:33 UTC. Time now 2016-Aug-27 02:52 UTC.
Position N 53°28' E 003°43'.

Length 249 m; draft 8.5 m.

Type: Tanker. MMSI: 240547000.

Date/timePositionNaut miles runAvg speedWind from/ knotsBaromVisibWave heightAir tempDewpointWater temp
2016-Aug-27 02:33N 53°28' E 003°43'1212.3
2016-Aug-27 01:33N 53°16' E 003°35'1312.6
2016-Aug-27 00:34N 53°05' E 003°26'1312.9
2016-Aug-26 23:34N 52°53' E 003°18'1313.3
2016-Aug-26 22:33N 52°41' E 003°08'1413.8
2016-Aug-26 21:33N 52°29' E 002°57'1514.9
2016-Aug-26 20:33N 52°19' E 003°14'1514.8
2016-Aug-26 19:33N 52°09' E 003°32'1413.9
2016-Aug-26 18:33N 52°02' E 003°52'9 9.0
2016-Aug-26 17:33N 51°59' E 004°06'9 9.1
2016-Aug-26 16:33N 51°54' E 004°18'1 0.6
2016-Aug-26 15:32N 51°53' E 004°17'0 0.0
2016-Aug-26 14:32N 51°53' E 004°17'0 0.0
2016-Aug-26 13:32N 51°53' E 004°17'0 0.0
2016-Aug-26 12:26N 51°53' E 004°17'0 0.0
2016-Aug-26 10:32N 51°53' E 004°17'0 0.0
2016-Aug-26 09:32N 51°53' E 004°17'0 0.0
2016-Aug-26 08:32N 51°53' E 004°17'0 0.0
2016-Aug-26 07:32N 51°53' E 004°17'0 0.0
2016-Aug-26 06:20N 51°53' E 004°17'0 0.0
2016-Aug-26 04:32N 51°53' E 004°17'0 0.0
2016-Aug-26 03:32N 51°53' E 004°17'0 0.0
2016-Aug-26 02:33N 51°53' E 004°17'0 0.0
2016-Aug-26 01:33N 51°53' E 004°17'0 0.0
2016-Aug-26 00:33N 51°53' E 004°17'0 0.0
2016-Aug-25 23:33N 51°53' E 004°17'0 0.0
2016-Aug-25 22:33N 51°53' E 004°17'0 0.0
2016-Aug-25 21:33N 51°53' E 004°17'0 0.0
2016-Aug-25 20:33N 51°53' E 004°17'0 0.0
2016-Aug-25 19:33N 51°53' E 004°17'0 0.0
2016-Aug-25 18:33N 51°53' E 004°17'0 0.0
2016-Aug-25 17:33N 51°53' E 004°17'0 0.0
2016-Aug-25 16:33N 51°53' E 004°17'0 0.0
2016-Aug-25 15:33N 51°53' E 004°17'0 0.0
2016-Aug-25 14:33N 51°53' E 004°17'0 0.0
2016-Aug-25 13:33N 51°53' E 004°17'0 0.0
2016-Aug-25 12:33N 51°53' E 004°17'0 0.0
2016-Aug-25 11:33N 51°53' E 004°17'0 0.0
2016-Aug-25 10:33N 51°53' E 004°17'0 0.0
2016-Aug-25 09:33N 51°53' E 004°17'0 0.0
2016-Aug-25 08:33N 51°53' E 004°17'0 0.0
2016-Aug-25 07:33N 51°53' E 004°17'0 0.0
2016-Aug-25 06:33N 51°53' E 004°17'0 0.0
2016-Aug-25 04:33N 51°53' E 004°17'0 0.0
2016-Aug-25 03:33N 51°53' E 004°17'0 0.0
2016-Aug-25 02:33N 51°53' E 004°17'0 0.0
2016-Aug-25 01:33N 51°53' E 004°17'0 0.0
2016-Aug-25 00:33N 51°53' E 004°17'0 0.0
2016-Aug-24 23:33N 51°53' E 004°17'0 0.0
2016-Aug-24 22:33N 51°53' E 004°17'0 0.0
2016-Aug-24 21:33N 51°53' E 004°17'0 0.0
2016-Aug-24 20:33N 51°53' E 004°17'0 0.0
2016-Aug-24 19:33N 51°53' E 004°17'0 0.0
2016-Aug-24 18:33N 51°53' E 004°17'0 0.0
2016-Aug-24 17:33N 51°53' E 004°17'0 0.0
2016-Aug-24 16:33N 51°53' E 004°17'0 0.0
2016-Aug-24 15:33N 51°53' E 004°17'0 0.0
2016-Aug-24 14:33N 51°53' E 004°17'0 0.0
2016-Aug-24 13:33N 51°53' E 004°17'0 0.0
2016-Aug-24 12:33N 51°53' E 004°17'0 0.0
2016-Aug-24 11:33N 51°53' E 004°17'0 0.0
2016-Aug-24 10:33N 51°53' E 004°17'0 0.0
2016-Aug-24 09:33N 51°53' E 004°17'0 0.0
2016-Aug-24 08:33N 51°53' E 004°17'0 0.0
2016-Aug-24 07:33N 51°53' E 004°17'0 0.0
2016-Aug-24 06:33N 51°53' E 004°17'2 0.8
2016-Aug-24 04:33N 51°54' E 004°16'7 7.3
2016-Aug-24 03:33N 51°59' E 004°06'7 7.5
2016-Aug-24 02:33N 51°60' E 003°54'6 5.7
2016-Aug-24 01:33N 51°60' E 003°45'7 7.5
2016-Aug-24 00:33N 51°57' E 003°34'6 6.3
2016-Aug-23 23:33N 51°56' E 003°24'6 5.9
2016-Aug-23 22:33N 51°54' E 003°14'10 9.8
2016-Aug-23 21:33N 51°53' E 002°59'1110.9
2016-Aug-23 20:33N 51°55' E 002°41'1110.5
2016-Aug-23 19:30N 52°06' E 002°38'3510.5
2016-Aug-23 16:12N 52°38' E 003°00'711.4
2016-Aug-23 15:33N 52°44' E 003°06'1312.7
2016-Aug-23 14:33N 52°55' E 003°16'1313.1
2016-Aug-23 13:32N 53°08' E 003°22'1413.2
2016-Aug-23 12:28N 53°22' E 003°29'1212.9
2016-Aug-23 11:32N 53°33' E 003°36'4611.5
2016-Aug-23 07:32N 54°07' E 004°29'1813.5
2016-Aug-23 06:12N 54°23' E 004°44'2413.8
2016-Aug-23 04:27N 54°44' E 005°04'1213.6
2016-Aug-23 03:33N 54°54' E 005°14'1413.5
2016-Aug-23 02:33N 55°07' E 005°24'1413.5
2016-Aug-23 01:33N 55°19' E 005°33'17212.3
2016-Aug-22 11:33N 57°37' E 008°40'1212.1
2016-Aug-22 10:32N 57°43' E 009°00'5512.4
2016-Aug-22 06:07N 57°51' E 010°41'5 9.6
2016-Aug-22 05:33N 57°47' E 010°49'1212.5
2016-Aug-22 04:33N 57°38' E 011°06'1414.0
2016-Aug-22 03:33N 57°28' E 011°25'1414.0
2016-Aug-22 02:33N 57°16' E 011°35'1413.9
2016-Aug-22 01:34N 57°03' E 011°43'1413.6
2016-Aug-22 00:33N 56°50' E 011°53'1212.6
2016-Aug-21 23:33N 56°37' E 011°48'1413.8
2016-Aug-21 22:33N 56°26' E 011°33'6512.4
2016-Aug-21 17:21N 55°24' E 011°00'1113.7
2016-Aug-21 16:32N 55°14' E 011°06'1212.7
2016-Aug-21 15:34N 55°02' E 010°60'1313.3
2016-Aug-21 14:34N 54°50' E 010°50'1111.3
2016-Aug-21 13:33N 54°39' E 010°53'1313.2
2016-Aug-21 12:34N 54°35' E 011°15'1414.1
2016-Aug-21 11:33N 54°29' E 011°37'1413.5
2016-Aug-21 10:33N 54°27' E 012°00'1111.0
2016-Aug-21 09:33N 54°33' E 012°15'9 9.4
2016-Aug-21 08:33N 54°40' E 012°27'1311.8
2016-Aug-21 07:27N 54°47' E 012°46'1612.0
2016-Aug-21 06:05N 54°53' E 013°12'2113.5
2016-Aug-21 04:33N 55°00' E 013°46'1313.2
2016-Aug-21 03:33N 55°07' E 014°06'1313.4
2016-Aug-21 02:33N 55°17' E 014°22'1313.3
2016-Aug-21 01:33N 55°27' E 014°37'1413.6
2016-Aug-21 00:34N 55°33' E 014°58'1313.3
2016-Aug-20 23:33N 55°38' E 015°20'1313.5
2016-Aug-20 22:33N 55°41' E 015°43'4513.7
2016-Aug-20 19:14N 55°53' E 017°01'913.6
2016-Aug-20 18:33N 55°55' E 017°17'1313.4
2016-Aug-20 17:34N 55°59' E 017°40'1413.5
2016-Aug-20 16:33N 56°06' E 018°01'1413.5
2016-Aug-20 15:33N 56°13' E 018°22'4013.2
2016-Aug-20 12:33N 56°44' E 019°07'22113.0
2016-Aug-19 19:33N 59°38' E 023°25'1414.0
2016-Aug-19 18:33N 59°42' E 023°52'1413.7
2016-Aug-19 17:32N 59°46' E 024°19'1313.5
2016-Aug-19 16:33N 59°49' E 024°44'2813.8
2016-Aug-19 14:33N 59°54' E 025°38'1613.7
2016-Aug-19 13:22N 59°58' E 026°10'1113.7
2016-Aug-19 12:34N 60°01' E 026°31'1413.6
2016-Aug-19 11:33N 59°59' E 026°59'1313.3
2016-Aug-19 10:33N 60°05' E 027°22'1413.8
2016-Aug-19 09:33N 60°12' E 027°46'1413.4
2016-Aug-19 08:32N 60°23' E 028°03'  

Dump ship's entire track history